Time;durP1;ratioP1;P1;durP2;ratioP2;P2;SDS_P1;SDS_P2;PMS_P1;PMS_P2;Temp;Humidity;BMP_temperature;BMP_pressure;BME280_temperature;BME280_humidity;BME280_pressure;Samples;Min_cycle;Max_cycle;Signal;HPM_P1;HPM_P2
2023/01/04 00:02:10;;;;;;;7.77;3.50;;;2.50;99.90;1.80;101290;;;;573217;249;24083;-80
2023/01/04 00:04:38;;;;;;;7.53;4.50;;;2.40;99.90;1.70;101297;;;;563645;246;46262;-80
2023/01/04 00:07:06;;;;;;;9.07;3.50;;;2.30;99.90;1.70;101295;;;;582417;245;24061;-80
2023/01/04 00:09:34;;;;;;;8.97;3.43;;;2.30;99.90;1.70;101292;;;;566707;253;24096;-79
2023/01/04 00:12:02;;;;;;;4.33;3.57;;;2.20;99.90;1.60;101284;;;;557724;253;24132;-80
2023/01/04 00:14:30;;;;;;;8.97;3.27;;;2.20;99.90;1.60;101269;;;;567994;252;24104;-80
2023/01/04 00:16:58;;;;;;;6.53;2.90;;;2.20;99.90;1.60;101284;;;;568163;252;24103;-82
2023/01/04 00:19:26;;;;;;;5.83;4.17;;;2.20;99.90;1.40;101285;;;;568079;252;24121;-82
2023/01/04 00:21:54;;;;;;;6.13;3.80;;;2.10;99.90;1.40;101288;;;;567908;253;24118;-83
2023/01/04 00:24:22;;;;;;;9.33;5.00;;;2.00;99.90;1.30;101290;;;;568462;252;24137;-81
2023/01/04 00:26:49;;;;;;;9.80;5.77;;;2.00;99.90;1.30;101290;;;;567514;253;24114;-79
2023/01/04 00:29:18;;;;;;;10.90;5.53;;;1.90;99.90;1.20;101286;;;;568154;252;24105;-80
2023/01/04 00:31:46;;;;;;;13.73;6.10;;;1.90;99.90;1.20;101288;;;;568041;252;24113;-82
2023/01/04 00:34:14;;;;;;;8.00;5.63;;;1.80;99.90;1.10;101288;;;;568429;252;25144;-82
2023/01/04 00:36:42;;;;;;;9.80;6.37;;;1.70;99.90;1.00;101295;;;;559197;253;24118;-80
2023/01/04 00:39:11;;;;;;;11.23;6.47;;;1.60;99.90;0.90;101292;;;;562386;254;24125;-82
2023/01/04 00:41:44;;;;;;;14.17;6.57;;;1.60;99.90;0.90;101299;;;;559237;251;24118;-81
2023/01/04 00:44:12;;;;;;;13.60;6.57;;;1.50;99.90;0.90;101305;;;;564496;253;24147;-82
2023/01/04 00:46:43;;;;;;;10.50;6.63;;;1.50;99.90;0.90;101300;;;;582556;244;24065;-80
2023/01/04 00:49:08;;;;;;;11.70;5.80;;;1.50;99.90;0.90;101306;;;;566876;250;24221;-82
2023/01/04 00:51:36;;;;;;;11.23;6.13;;;1.50;99.90;0.90;101302;;;;577027;246;24045;-81
2023/01/04 00:54:05;;;;;;;12.47;5.83;;;1.50;99.90;0.90;101298;;;;576997;246;24062;-81
2023/01/04 00:56:33;;;;;;;11.23;6.53;;;1.50;99.90;0.90;101306;;;;578461;246;25125;-80
2023/01/04 00:59:04;;;;;;;9.23;5.63;;;1.50;99.90;0.80;101302;;;;585681;245;24159;-81
2023/01/04 01:01:32;;;;;;;12.50;6.10;;;1.50;99.90;0.80;101294;;;;576015;246;24057;-80
2023/01/04 01:03:57;;;;;;;14.35;7.75;;;1.40;99.90;0.70;101283;;;;561328;250;35414;-81
2023/01/04 01:06:25;;;;;;;4.57;3.30;;;1.40;99.90;0.70;101297;;;;561930;250;24098;-80
2023/01/04 01:08:53;;;;;;;7.47;3.90;;;1.40;99.90;0.70;101289;;;;566199;250;24113;-79
2023/01/04 01:11:21;;;;;;;10.93;6.13;;;1.40;99.90;0.60;101290;;;;573260;251;24083;-82
2023/01/04 01:13:49;;;;;;;12.47;6.70;;;1.30;99.90;0.50;101286;;;;575276;249;24074;-81
2023/01/04 01:16:20;;;;;;;13.93;8.38;;;1.20;99.90;0.40;101287;;;;568370;250;35344;-80
2023/01/04 01:18:48;;;;;;;6.83;3.50;;;1.20;99.90;0.40;101287;;;;558814;253;24118;-82
2023/01/04 01:21:18;;;;;;;6.30;4.30;;;1.10;99.90;0.40;101287;;;;563306;252;24112;-80
2023/01/04 01:23:46;;;;;;;9.23;6.13;;;1.10;99.90;0.40;101284;;;;564586;252;24110;-83
2023/01/04 01:26:17;;;;;;;11.70;6.87;;;1.10;99.90;0.40;101273;;;;549169;258;24112;-81
2023/01/04 01:28:42;;;;;;;13.00;6.87;;;1.10;99.90;0.40;101263;;;;563624;251;24228;-82
2023/01/04 01:31:10;;;;;;;13.40;6.67;;;1.10;99.90;0.40;101262;;;;585102;244;24098;-79
2023/01/04 01:33:41;;;;;;;8.53;6.50;;;1.10;99.90;0.40;101263;;;;559034;251;24093;-80
2023/01/04 01:36:08;;;;;;;13.17;6.37;;;1.10;99.90;0.30;101259;;;;563091;251;25122;-82
2023/01/04 01:38:40;;;;;;;12.67;6.27;;;1.00;99.90;0.30;101247;;;;564133;252;24139;-80
2023/01/04 01:41:08;;;;;;;15.10;7.23;;;0.90;99.90;0.20;101256;;;;578073;246;24136;-81
2023/01/04 01:43:54;;;;;;;15.67;7.07;;;0.90;99.90;0.10;101251;;;;584398;244;24203;-78
2023/01/04 01:46:34;;;;;;;11.17;6.73;;;0.90;99.90;0.10;101257;;;;587521;243;24112;-80
2023/01/04 01:49:22;;;;;;;9.50;6.20;;;0.80;99.90;0.10;101259;;;;580556;243;24089;-80
2023/01/04 01:51:54;;;;;;;8.90;6.17;;;0.80;99.90;0.10;101260;;;;564928;253;24108;-80
2023/01/04 01:54:25;;;;;;;8.63;6.60;;;0.70;99.90;0.00;101269;;;;566629;250;24087;-80
2023/01/04 01:56:53;;;;;;;9.67;6.67;;;0.70;99.90;-0.10;101260;;;;561408;248;24162;-80
2023/01/04 01:59:20;;;;;;;10.63;6.63;;;0.70;99.90;-0.10;101253;;;;566767;250;24116;-80
2023/01/04 02:01:46;;;;;;;10.87;5.90;;;0.60;99.90;-0.10;101247;;;;564588;254;24131;-83
2023/01/04 02:04:15;;;;;;;11.17;6.83;;;0.60;99.90;-0.20;101250;;;;581266;245;24135;-79
2023/01/04 02:06:48;;;;;;;7.83;5.90;;;0.50;99.90;-0.20;101247;;;;588108;244;25315;-80
2023/01/04 02:09:16;;;;;;;9.90;6.87;;;0.50;99.90;-0.20;101238;;;;553368;254;24130;-82
2023/01/04 02:11:44;;;;;;;11.57;6.33;;;0.50;99.90;-0.30;101241;;;;553352;254;24110;-83
2023/01/04 02:14:27;;;;;;;8.13;7.03;;;0.50;99.90;-0.30;101237;;;;564617;249;24122;-80
2023/01/04 02:17:22;;;;;;;15.07;6.83;;;0.40;99.90;-0.30;101231;;;;578475;244;24087;-81
2023/01/04 02:20:01;;;;;;;10.27;5.53;;;0.40;99.90;-0.30;101234;;;;555638;252;24119;-79
2023/01/04 02:23:11;;;;;;;11.73;6.73;;;0.40;99.90;-0.30;101225;;;;580412;244;24112;-82
2023/01/04 02:26:00;;;;;;;7.90;5.97;;;0.40;99.90;-0.30;101220;;;;551801;256;24129;-80
2023/01/04 02:28:47;;;;;;;12.03;6.20;;;0.40;99.90;-0.30;101222;;;;578726;246;24062;-80
2023/01/04 02:31:26;;;;;;;11.60;6.73;;;0.40;99.90;-0.20;101226;;;;550657;255;24130;-79
2023/01/04 02:34:00;;;;;;;9.20;7.30;;;0.50;99.90;-0.20;101224;;;;585001;245;24095;-80
2023/01/04 02:36:51;;;;;;;12.70;7.00;;;0.50;99.90;-0.10;101209;;;;584238;245;24095;-80
2023/01/04 02:39:31;;;;;;;10.80;7.17;;;0.60;99.90;-0.10;101205;;;;574978;250;24076;-79
2023/01/04 02:42:07;;;;;;;11.77;8.03;;;0.60;99.90;0.00;101200;;;;578936;245;24033;-80
2023/01/04 02:44:53;;;;;;;14.53;7.63;;;0.60;99.90;0.00;101199;;;;576088;246;24082;-80
2023/01/04 02:50:34;;;;;;;11.40;7.33;;;0.70;99.90;0.10;101192;;;;573142;245;24023;-79
2023/01/04 02:53:10;;;;;;;12.73;6.80;;;0.70;99.90;0.00;101202;;;;577271;243;26421;-81
2023/01/04 02:56:14;;;;;;;11.90;6.97;;;0.70;99.90;0.00;101210;;;;564244;251;24096;-80
2023/01/04 02:58:51;;;;;;;11.27;7.40;;;0.70;99.90;-0.10;101212;;;;580827;244;24100;-80
2023/01/04 03:07:51;;;;;;;7.93;6.63;;;0.50;99.90;-0.20;101202;;;;573472;249;24094;-80
2023/01/04 03:10:24;;;;;;;11.97;6.87;;;0.50;99.90;-0.20;101199;;;;551589;258;24124;-80
2023/01/04 03:13:04;;;;;;;13.17;8.00;;;0.50;99.90;-0.20;101204;;;;576684;245;24064;-83
2023/01/04 03:15:32;;;;;;;11.00;7.33;;;0.50;99.90;-0.20;101202;;;;565338;250;25192;-81
2023/01/04 03:18:01;;;;;;;9.40;6.03;;;0.50;99.90;-0.20;101200;;;;577395;246;24060;-81
2023/01/04 03:20:29;;;;;;;13.73;8.60;;;0.50;99.90;-0.20;101204;;;;554308;251;35438;-81
2023/01/04 03:37:21;;;;;;;11.23;6.37;;;0.50;99.90;-0.20;101171;;;;585791;245;25107;-81
2023/01/04 03:49:20;;;;;;;13.00;6.93;;;0.50;99.90;-0.20;101163;;;;566724;252;24094;-80
2023/01/04 03:51:49;;;;;;;10.30;6.77;;;0.50;99.90;-0.20;101148;;;;555314;255;24151;-81
2023/01/04 03:54:18;;;;;;;15.23;6.77;;;0.50;99.90;-0.20;101146;;;;578807;244;24038;-81
2023/01/04 03:56:46;;;;;;;13.37;7.40;;;0.50;99.90;-0.20;101140;;;;553054;254;24119;-80
2023/01/04 03:59:17;;;;;;;10.70;7.07;;;0.50;99.90;-0.10;101127;;;;553790;255;24147;-82
2023/01/04 04:01:41;;;;;;;12.23;7.63;;;0.50;99.90;-0.10;101124;;;;561593;250;24132;-80
2023/01/04 04:09:41;;;;;;;9.83;7.10;;;0.60;99.90;-0.10;101110;;;;562670;255;24188;-81
2023/01/04 04:12:09;;;;;;;10.47;6.70;;;0.60;99.90;0.00;101100;;;;556181;257;24158;-80
2023/01/04 04:14:37;;;;;;;9.03;6.13;;;0.60;99.90;0.00;101087;;;;559961;257;24131;-81
2023/01/04 04:17:05;;;;;;;13.70;6.83;;;0.60;99.90;0.00;101085;;;;559988;257;24120;-81
2023/01/04 04:19:34;;;;;;;18.60;8.23;;;0.70;99.90;0.00;101078;;;;559976;257;24152;-80
2023/01/04 04:22:05;;;;;;;14.70;7.73;;;0.70;99.90;0.00;101083;;;;561369;254;24218;-82
2023/01/04 04:24:30;;;;;;;9.80;6.83;;;0.70;99.90;0.00;101077;;;;562931;253;24110;-80
2023/01/04 04:26:58;;;;;;;14.65;8.07;;;0.70;99.90;0.00;101069;;;;563775;253;46423;-81
2023/01/04 04:29:26;;;;;;;9.75;6.90;;;0.70;99.90;0.00;101062;;;;563864;252;35483;-82
2023/01/04 04:31:54;;;;;;;10.77;4.90;;;0.70;99.90;0.00;101069;;;;568501;252;24130;-80
2023/01/04 04:34:22;;;;;;;3.90;3.50;;;0.70;99.90;0.00;101069;;;;568662;252;24123;-81
2023/01/04 04:36:50;;;;;;;4.90;3.23;;;0.70;99.90;0.00;101057;;;;568426;252;24130;-81
2023/01/04 04:39:21;;;;;;;6.60;4.23;;;0.70;99.90;0.00;101059;;;;568754;252;24110;-81
2023/01/04 04:41:49;;;;;;;9.43;4.27;;;0.70;99.90;0.00;101056;;;;567766;253;25163;-81
2023/01/04 04:44:16;;;;;;;12.90;6.82;;;0.60;99.90;-0.10;101057;;;;546561;257;46539;-81
2023/01/04 04:46:44;;;;;;;8.90;4.80;;;0.60;99.90;-0.10;101054;;;;562911;255;24121;-81
2023/01/04 04:49:12;;;;;;;7.27;4.57;;;0.60;99.90;-0.10;101059;;;;561569;255;24096;-81
2023/01/04 04:51:40;;;;;;;8.63;4.90;;;0.60;99.90;0.00;101055;;;;564744;251;24095;-81
2023/01/04 04:54:11;;;;;;;10.33;4.57;;;0.60;99.90;0.00;101044;;;;565958;253;24098;-81
2023/01/04 04:56:36;;;;;;;5.63;3.23;;;0.60;99.90;0.00;101039;;;;561057;252;24202;-81
2023/01/04 04:59:04;;;;;;;9.30;5.67;;;0.60;99.90;0.00;101038;;;;574186;246;24039;-81
2023/01/04 05:01:32;;;;;;;12.87;5.33;;;0.70;99.90;0.10;101039;;;;563052;252;24080;-80
2023/01/04 05:04:00;;;;;;;9.93;5.80;;;0.80;99.90;0.20;101029;;;;566604;251;24071;-82
2023/01/04 05:06:32;;;;;;;11.00;7.07;;;0.80;99.90;0.30;101022;;;;572751;251;24116;-81
2023/01/04 05:08:59;;;;;;;16.73;5.50;;;0.90;99.90;0.30;101007;;;;572077;251;24122;-82
2023/01/04 05:14:10;;;;;;;16.80;8.40;;;1.00;99.90;0.40;101008;;;;561971;248;24087;-81
2023/01/04 05:16:38;;;;;;;11.23;6.27;;;1.10;99.90;0.50;101007;;;;573017;249;24183;-82
2023/01/04 05:19:06;;;;;;;11.83;6.47;;;1.20;99.90;0.50;101009;;;;573057;250;24105;-81
2023/01/04 05:21:34;;;;;;;11.00;6.50;;;1.10;99.90;0.60;101011;;;;572454;251;24068;-82
2023/01/04 05:24:05;;;;;;;11.43;6.70;;;1.20;99.90;0.60;101006;;;;572932;251;24095;-82
2023/01/04 05:26:30;;;;;;;12.50;6.07;;;1.20;99.90;0.70;101010;;;;561322;251;24104;-81
2023/01/04 05:28:59;;;;;;;13.40;7.37;;;1.30;99.90;0.70;100997;;;;572661;251;24114;-81
2023/01/04 05:31:27;;;;;;;13.63;7.40;;;1.30;99.90;0.70;101002;;;;573143;249;24108;-81
2023/01/04 05:33:55;;;;;;;10.63;6.70;;;1.30;99.90;0.70;101002;;;;574820;250;24094;-81
2023/01/04 05:36:23;;;;;;;21.50;8.70;;;1.40;99.90;0.70;100997;;;;576435;249;24098;-81
2023/01/04 05:38:51;;;;;;;11.43;6.87;;;1.40;99.90;0.80;100982;;;;573232;250;24095;-81
2023/01/04 05:44:05;;;;;;;18.53;7.93;;;1.40;99.90;0.70;100980;;;;575616;250;24079;-83
2023/01/04 05:46:33;;;;;;;16.97;7.77;;;1.40;99.90;0.70;100975;;;;573331;251;24084;-80
2023/01/04 05:49:05;;;;;;;19.67;8.20;;;1.30;99.90;0.70;100967;;;;566532;250;24083;-82
2023/01/04 05:51:29;;;;;;;16.83;8.07;;;1.30;99.90;0.70;100962;;;;570327;245;24085;-83
2023/01/04 05:53:58;;;;;;;17.87;8.27;;;1.30;99.90;0.70;100949;;;;571844;251;24086;-81
2023/01/04 05:56:26;;;;;;;17.83;6.70;;;1.30;99.90;0.70;100946;;;;555663;255;24107;-82
2023/01/04 05:58:53;;;;;;;12.87;7.33;;;1.30;99.90;0.70;100942;;;;563293;254;24096;-81
2023/01/04 06:01:21;;;;;;;13.53;6.03;;;1.30;99.90;0.70;100948;;;;563694;252;24104;-82
2023/01/04 06:03:50;;;;;;;15.77;6.80;;;1.40;99.90;0.70;100939;;;;563554;255;24120;-81
2023/01/04 06:06:18;;;;;;;10.27;5.77;;;1.30;99.90;0.80;100935;;;;573228;250;24076;-81
2023/01/04 06:08:46;;;;;;;15.73;7.23;;;1.40;99.90;0.80;100937;;;;565426;253;24122;-81
2023/01/04 06:11:14;;;;;;;11.47;7.37;;;1.40;99.90;0.80;100931;;;;563119;250;24086;-80
2023/01/04 06:13:42;;;;;;;24.50;12.37;;;1.40;99.90;0.80;100937;;;;580369;245;35240;-81
2023/01/04 06:16:11;;;;;;;14.17;7.20;;;1.40;99.90;0.80;100934;;;;559946;254;24233;-81
2023/01/04 06:18:39;;;;;;;16.87;7.93;;;1.40;99.90;0.80;100921;;;;561548;252;24156;-82
2023/01/04 06:21:07;;;;;;;11.57;7.50;;;1.40;99.90;0.80;100913;;;;557327;255;24100;-81
2023/01/04 06:23:35;;;;;;;17.30;6.47;;;1.40;99.90;0.80;100918;;;;584977;244;24061;-81
2023/01/04 06:26:03;;;;;;;15.70;6.90;;;1.40;99.90;0.80;100907;;;;585035;245;24081;-82
2023/01/04 06:28:31;;;;;;;14.63;6.40;;;1.50;99.90;0.80;100894;;;;579097;246;24049;-82
2023/01/04 06:30:59;;;;;;;10.10;6.23;;;1.50;99.90;0.80;100892;;;;585129;245;24079;-82
2023/01/04 06:33:26;;;;;;;15.20;7.17;;;1.40;99.90;0.80;100891;;;;575427;245;24054;-82
2023/01/04 06:35:54;;;;;;;14.77;6.63;;;1.40;99.90;0.80;100892;;;;571449;251;24085;-81
2023/01/04 06:38:26;;;;;;;18.00;8.07;;;1.50;99.90;0.80;100878;;;;576320;245;24040;-80
2023/01/04 06:40:51;;;;;;;10.10;6.27;;;1.40;99.90;0.80;100882;;;;562045;255;24187;-80
2023/01/04 06:43:19;;;;;;;12.70;7.20;;;1.50;99.90;0.80;100877;;;;585877;243;24059;-81
2023/01/04 06:45:47;;;;;;;21.63;10.63;;;1.50;99.90;0.90;100873;;;;559178;254;24113;-80
2023/01/04 06:48:15;;;;;;;30.10;15.13;;;1.50;99.90;0.90;100873;;;;574231;250;24076;-81
2023/01/04 06:50:43;;;;;;;16.90;7.50;;;1.60;99.90;0.90;100870;;;;574098;250;24103;-81
2023/01/04 06:53:10;;;;;;;19.58;10.50;;;1.60;99.90;1.00;100874;;;;568143;250;35253;-82
2023/01/04 06:55:38;;;;;;;14.47;7.00;;;1.60;99.90;1.00;100853;;;;573840;250;24078;-81
2023/01/04 06:58:07;;;;;;;11.07;5.13;;;1.70;99.90;1.00;100846;;;;573787;248;24114;-81
2023/01/04 07:00:35;;;;;;;13.00;5.27;;;1.70;99.90;1.10;100850;;;;573824;249;24071;-81
2023/01/04 07:03:03;;;;;;;12.67;5.33;;;1.70;99.90;1.10;100829;;;;573097;250;24075;-80
2023/01/04 07:05:31;;;;;;;7.17;4.50;;;1.80;99.90;1.10;100831;;;;573561;249;24079;-80
2023/01/04 07:08:00;;;;;;;14.18;7.37;;;1.80;99.90;1.20;100818;;;;568181;250;35372;-80
2023/01/04 07:10:27;;;;;;;11.30;5.17;;;1.80;99.90;1.20;100821;;;;573537;251;24076;-80
2023/01/04 07:12:59;;;;;;;5.70;4.47;;;1.90;99.90;1.30;100815;;;;562260;250;24094;-81
2023/01/04 07:15:23;;;;;;;11.03;4.93;;;1.90;99.90;1.30;100808;;;;564343;250;24101;-81
2023/01/04 07:17:52;;;;;;;6.27;3.47;;;1.90;99.90;1.30;100801;;;;573682;251;24106;-81
2023/01/04 07:20:23;;;;;;;7.83;3.70;;;2.00;99.90;1.30;100802;;;;573392;249;24090;-80
2023/01/04 07:22:48;;;;;;;10.73;3.60;;;1.90;99.90;1.30;100798;;;;567255;250;24092;-81
2023/01/04 07:25:16;;;;;;;6.70;3.13;;;1.90;99.90;1.30;100796;;;;573249;249;24143;-81
2023/01/04 07:27:44;;;;;;;6.30;3.50;;;2.00;99.90;1.30;100791;;;;573178;249;24079;-81
2023/01/04 07:30:15;;;;;;;6.33;3.37;;;2.00;99.90;1.30;100792;;;;573043;251;24101;-80
2023/01/04 07:32:40;;;;;;;12.00;3.47;;;2.00;99.90;1.30;100792;;;;558754;251;24122;-81
2023/01/04 07:35:08;;;;;;;4.63;3.43;;;2.00;99.90;1.30;100788;;;;572496;249;24103;-80
2023/01/04 07:37:37;;;;;;;4.40;3.53;;;2.00;99.90;1.30;100783;;;;561706;251;24084;-82
2023/01/04 07:40:05;;;;;;;7.47;3.43;;;2.00;99.90;1.30;100774;;;;561794;250;24241;-81
2023/01/04 07:42:33;;;;;;;7.60;3.97;;;2.00;99.90;1.40;100776;;;;561626;251;24129;-79
2023/01/04 07:45:01;;;;;;;4.20;2.77;;;2.00;99.90;1.40;100771;;;;573530;249;24104;-81
2023/01/04 07:47:29;;;;;;;5.40;4.13;;;2.00;99.90;1.40;100759;;;;573610;250;24076;-80
2023/01/04 07:49:59;;;;;;;7.83;4.23;;;2.10;99.90;1.40;100758;;;;585375;245;24058;-82
2023/01/04 07:52:24;;;;;;;5.03;3.97;;;2.10;99.90;1.40;100750;;;;562710;250;24087;-80
2023/01/04 07:54:53;;;;;;;10.43;4.93;;;2.10;99.90;1.40;100742;;;;566300;251;24115;-82
2023/01/04 07:57:21;;;;;;;11.07;4.40;;;2.10;99.90;1.40;100738;;;;550956;257;24096;-80
2023/01/04 07:59:49;;;;;;;4.97;3.40;;;2.10;99.90;1.50;100728;;;;576567;247;24067;-82
2023/01/04 08:02:17;;;;;;;6.23;3.03;;;2.10;99.90;1.50;100737;;;;585873;245;25147;-80
2023/01/04 08:04:45;;;;;;;7.57;3.67;;;2.20;99.90;1.60;100725;;;;586210;245;24060;-80
2023/01/04 08:07:13;;;;;;;4.37;3.13;;;2.20;99.90;1.60;100708;;;;572231;251;24077;-80
2023/01/04 08:09:40;;;;;;;5.80;3.47;;;2.20;99.90;1.60;100709;;;;559498;254;24157;-83
2023/01/04 08:12:09;;;;;;;8.33;4.30;;;2.20;99.90;1.60;100700;;;;586032;245;24041;-83
2023/01/04 08:14:37;;;;;;;4.37;3.83;;;2.20;99.90;1.50;100700;;;;585291;245;24070;-80
2023/01/04 08:17:06;;;;;;;6.50;3.97;;;2.20;99.90;1.60;100686;;;;585413;243;24058;-81
2023/01/04 08:19:34;;;;;;;14.00;5.73;;;2.20;99.90;1.60;100685;;;;585655;245;25094;-82
2023/01/04 08:22:01;;;;;;;8.17;4.47;;;2.20;99.90;1.60;100680;;;;585231;245;24063;-79
2023/01/04 08:24:29;;;;;;;8.37;5.50;;;2.20;99.90;1.60;100671;;;;565821;252;24114;-82
2023/01/04 08:26:58;;;;;;;9.27;5.50;;;2.20;99.90;1.60;100675;;;;578663;246;24051;-80
2023/01/04 08:29:26;;;;;;;8.67;5.83;;;2.20;99.90;1.70;100674;;;;584863;245;24054;-81
2023/01/04 08:31:54;;;;;;;9.77;5.07;;;2.30;99.90;1.70;100658;;;;571149;251;24096;-81
2023/01/04 08:34:22;;;;;;;8.40;6.27;;;2.30;99.90;1.70;100660;;;;580508;244;24053;-80
2023/01/04 08:36:50;;;;;;;12.97;6.47;;;2.40;99.90;1.80;100659;;;;571514;250;24087;-82
2023/01/04 08:39:21;;;;;;;8.97;6.07;;;2.40;99.90;1.80;100643;;;;580292;246;24074;-83
2023/01/04 08:41:52;;;;;;;12.10;7.20;;;2.40;99.90;1.80;100644;;;;555180;257;24128;-82
2023/01/04 08:44:26;;;;;;;15.93;7.53;;;2.40;99.90;1.80;100631;;;;569328;251;24099;-82
2023/01/04 08:46:50;;;;;;;13.63;6.87;;;2.50;99.90;1.90;100640;;;;577752;244;24065;-82
2023/01/04 08:49:18;;;;;;;14.77;7.33;;;2.50;99.90;1.90;100632;;;;584986;244;24086;-78
2023/01/04 08:51:47;;;;;;;16.03;7.17;;;2.60;99.90;1.90;100634;;;;551589;256;24136;-80
2023/01/04 08:54:15;;;;;;;14.03;7.17;;;2.60;99.90;2.00;100619;;;;570631;245;24047;-78
2023/01/04 08:56:43;;;;;;;13.63;6.90;;;2.60;99.90;2.00;100608;;;;579102;245;24058;-80
2023/01/04 08:59:11;;;;;;;5.67;4.80;;;2.60;99.90;2.00;100597;;;;585094;245;24058;-78
2023/01/04 09:01:39;;;;;;;11.83;6.80;;;2.70;99.90;2.10;100594;;;;585152;245;24059;-79
2023/01/04 09:04:07;;;;;;;11.30;7.33;;;2.70;99.90;2.10;100581;;;;585126;243;24047;-79
2023/01/04 09:06:35;;;;;;;12.20;7.00;;;2.70;99.90;2.10;100572;;;;563278;251;24107;-79
2023/01/04 09:09:03;;;;;;;12.07;6.67;;;2.70;99.90;2.10;100568;;;;567533;250;24091;-81
2023/01/04 09:11:35;;;;;;;13.53;8.90;;;2.80;99.90;2.10;100560;;;;575976;248;24084;-79
2023/01/04 09:14:02;;;;;;;9.33;6.00;;;2.70;99.90;2.20;100538;;;;584970;244;24070;-81
2023/01/04 09:16:27;;;;;;;12.40;8.43;;;2.80;99.90;2.20;100540;;;;575943;246;24070;-80
2023/01/04 09:18:56;;;;;;;12.90;9.47;;;2.80;99.90;2.20;100539;;;;585530;245;24143;-81
2023/01/04 09:21:24;;;;;;;15.77;9.07;;;2.90;99.90;2.30;100537;;;;585599;245;24053;-82
2023/01/04 09:23:52;;;;;;;17.70;9.53;;;2.90;99.90;2.30;100531;;;;585016;245;24058;-80
2023/01/04 09:26:23;;;;;;;12.53;8.73;;;2.90;99.90;2.40;100520;;;;578470;246;24191;-81
2023/01/04 09:28:53;;;;;;;17.83;8.17;;;2.90;99.90;2.40;100520;;;;585777;245;24099;-80
2023/01/04 09:31:21;;;;;;;15.30;8.80;;;3.00;99.90;2.40;100512;;;;576819;246;24046;-79
2023/01/04 09:33:54;;;;;;;14.93;9.70;;;3.00;99.90;2.40;100511;;;;585211;243;24054;-81
2023/01/04 09:36:22;;;;;;;12.80;7.83;;;3.00;99.90;2.50;100504;;;;580278;245;24065;-79
2023/01/04 09:38:51;;;;;;;14.10;7.83;;;3.20;99.90;2.60;100501;;;;575091;245;24091;-78
2023/01/04 09:41:25;;;;;;;16.13;9.43;;;3.10;99.90;2.60;100490;;;;563006;252;24107;-79
2023/01/04 09:43:56;;;;;;;18.37;10.53;;;3.20;99.90;2.70;100482;;;;562147;251;24109;-83
2023/01/04 09:46:39;;;;;;;17.63;9.33;;;3.20;99.90;2.60;100464;;;;584228;245;24137;-80
2023/01/04 09:49:30;;;;;;;17.47;10.00;;;3.20;99.90;2.60;100450;;;;573934;246;24072;-81
2023/01/04 09:52:09;;;;;;;16.40;9.90;;;3.20;99.90;2.70;100449;;;;576327;246;24062;-80
2023/01/04 09:54:40;;;;;;;19.00;9.80;;;3.30;99.90;2.60;100432;;;;569162;245;24114;-80
2023/01/04 09:57:08;;;;;;;18.20;10.33;;;3.20;99.90;2.70;100426;;;;576227;245;24051;-81
2023/01/04 09:59:39;;;;;;;16.57;10.03;;;3.30;99.90;2.70;100409;;;;585053;243;24066;-79
2023/01/04 10:02:04;;;;;;;16.13;9.33;;;3.30;99.90;2.70;100404;;;;584247;245;24101;-81
2023/01/04 10:04:34;;;;;;;18.43;9.63;;;3.30;99.90;2.70;100392;;;;575969;245;24064;-81
2023/01/04 10:07:02;;;;;;;19.40;9.93;;;3.30;99.90;2.70;100389;;;;576244;246;24080;-81
2023/01/04 10:09:30;;;;;;;14.17;6.27;;;3.30;99.90;2.80;100381;;;;585020;245;24056;-80
2023/01/04 10:12:22;;;;;;;16.60;8.70;;;3.30;99.90;2.80;100367;;;;578195;246;24081;-80
2023/01/04 10:15:05;;;;;;;20.73;9.87;;;3.30;99.90;2.70;100359;;;;572582;246;24062;-80
2023/01/04 10:18:03;;;;;;;20.30;8.23;;;3.30;99.90;2.80;100354;;;;575734;245;25109;-80
2023/01/04 10:20:45;;;;;;;13.73;6.87;;;3.30;99.90;2.70;100338;;;;586707;245;24053;-80
2023/01/04 10:23:28;;;;;;;14.60;8.97;;;3.30;99.90;2.70;100335;;;;561448;250;24132;-79
2023/01/04 10:26:05;;;;;;;14.87;9.47;;;3.30;99.90;2.70;100317;;;;560960;250;24098;-81
2023/01/04 10:28:47;;;;;;;18.47;9.57;;;3.30;99.90;2.70;100311;;;;562597;250;24115;-82
2023/01/04 10:31:18;;;;;;;14.77;10.47;;;3.30;99.90;2.70;100296;;;;558128;252;24096;-82
2023/01/04 10:33:49;;;;;;;17.97;9.73;;;3.30;99.90;2.70;100301;;;;569049;249;24082;-79
2023/01/04 10:36:17;;;;;;;23.80;11.57;;;3.30;99.90;2.70;100288;;;;559857;253;24090;-83
2023/01/04 10:38:48;;;;;;;24.30;11.10;;;3.30;99.90;2.80;100292;;;;582310;246;24081;-80
2023/01/04 10:41:13;;;;;;;25.10;16.48;;;3.40;99.90;2.80;100298;;;;578234;245;35154;-82
2023/01/04 10:43:56;;;;;;;18.83;12.77;;;3.40;99.90;2.80;100286;;;;573992;246;24118;-80
2023/01/04 10:46:26;;;;;;;21.33;10.97;;;3.40;99.90;2.80;100276;;;;584035;245;24065;-80
2023/01/04 10:49:09;;;;;;;17.47;9.13;;;3.40;99.90;2.80;100267;;;;584899;245;24093;-81
2023/01/04 10:52:01;;;;;;;16.67;10.30;;;3.40;99.90;2.80;100237;;;;570416;245;24070;-81
2023/01/04 10:54:40;;;;;;;14.03;9.23;;;3.40;99.90;2.80;100225;;;;573231;250;24137;-81
2023/01/04 10:57:23;;;;;;;15.53;8.10;;;3.40;99.90;2.80;100214;;;;572323;250;24197;-79
2023/01/04 10:59:53;;;;;;;16.57;9.93;;;3.40;99.90;2.70;100207;;;;565337;252;24093;-81
2023/01/04 11:02:30;;;;;;;13.93;7.73;;;3.40;99.90;2.70;100200;;;;573246;245;24061;-81
2023/01/04 11:05:12;;;;;;;18.67;8.87;;;3.30;99.90;2.70;100194;;;;561989;255;24113;-82
2023/01/04 11:07:52;;;;;;;24.17;9.47;;;3.30;99.90;2.70;100190;;;;561860;255;24129;-81
2023/01/04 11:10:34;;;;;;;13.83;9.23;;;3.30;99.90;2.80;100182;;;;568543;250;24083;-81
2023/01/04 11:13:02;;;;;;;18.17;8.63;;;3.30;99.90;2.80;100178;;;;560778;250;24106;-81
2023/01/04 11:15:30;;;;;;;15.40;8.87;;;3.40;99.90;2.80;100165;;;;572317;245;24091;-79
2023/01/04 11:17:58;;;;;;;17.90;10.87;;;3.40;99.90;2.90;100160;;;;565455;252;24096;-79
2023/01/04 11:20:26;;;;;;;18.30;10.13;;;3.40;99.90;2.90;100147;;;;576581;245;24054;-80
2023/01/04 11:23:00;;;;;;;16.93;10.60;;;3.40;99.90;2.90;100138;;;;559129;252;24135;-80
2023/01/04 11:25:27;;;;;;;15.60;8.93;;;3.40;99.90;2.90;100108;;;;560884;252;25153;-82
2023/01/04 11:28:07;;;;;;;18.70;10.93;;;3.50;99.90;2.90;100108;;;;572822;250;24091;-82
2023/01/04 11:30:53;;;;;;;18.37;9.20;;;3.50;99.90;2.90;100096;;;;564821;249;24140;-82
2023/01/04 11:33:21;;;;;;;26.50;17.50;;;3.50;99.90;2.90;100086;;;;559095;254;37304;-79
2023/01/04 11:35:49;;;;;;;22.87;13.93;;;3.50;99.90;2.90;100077;;;;550550;253;24111;-81
2023/01/04 11:38:23;;;;;;;29.20;18.37;;;3.50;99.90;2.90;100070;;;;558149;255;35576;-80
2023/01/04 11:41:04;;;;;;;22.57;14.83;;;3.50;99.90;2.90;100065;;;;554972;255;24140;-82
2023/01/04 11:43:36;;;;;;;23.43;13.23;;;3.50;99.90;3.00;100068;;;;573565;250;24091;-79
2023/01/04 11:46:12;;;;;;;30.00;17.62;;;3.60;99.90;3.00;100052;;;;556953;255;35572;-80
2023/01/04 11:48:43;;;;;;;19.80;11.13;;;3.60;99.90;3.00;100046;;;;550258;256;24139;-80
2023/01/04 11:51:26;;;;;;;22.60;12.37;;;3.60;99.90;3.00;100042;;;;554516;256;24237;-79
2023/01/04 11:54:03;;;;;;;20.27;10.90;;;3.60;99.90;3.10;100023;;;;553478;255;24115;-81
2023/01/04 11:56:33;;;;;;;21.27;12.17;;;3.60;99.90;3.00;100010;;;;562148;249;24132;-81
2023/01/04 11:59:16;;;;;;;27.10;10.57;;;3.60;99.90;3.10;99999;;;;562024;253;24145;-81
2023/01/04 12:01:45;;;;;;;23.43;11.43;;;3.50;99.90;3.00;99999;;;;556716;255;24139;-81
2023/01/04 12:04:16;;;;;;;21.40;11.80;;;3.50;99.90;3.00;99999;;;;556636;255;25180;-80
2023/01/04 12:06:53;;;;;;;20.80;9.80;;;3.50;99.90;2.90;99995;;;;551373;256;24163;-79
2023/01/04 12:09:23;;;;;;;19.80;9.70;;;3.40;99.90;2.80;99986;;;;553557;256;24153;-80
2023/01/04 12:11:51;;;;;;;23.17;11.37;;;3.40;99.90;2.80;99973;;;;562326;255;24122;-82
2023/01/04 12:14:27;;;;;;;20.33;9.43;;;3.30;99.90;2.80;99965;;;;565148;254;24226;-79
2023/01/04 12:17:13;;;;;;;26.73;10.70;;;3.30;99.90;2.80;99947;;;;555915;255;24115;-80
2023/01/04 12:19:44;;;;;;;16.07;9.43;;;3.30;99.90;2.80;99934;;;;563234;254;24111;-81